sensor_id;sensor_type;location;lat;lon;timestamp;pressure;altitude;pressure_sealevel;temperature;humidity
62680;BME280;68213;40.528;44.712;2023-05-20T00:00:32;80400.13;;;8.29;79.32
62680;BME280;68213;40.528;44.712;2023-05-20T00:01:33;80395.00;;;8.19;79.64
62680;BME280;68213;40.528;44.712;2023-05-20T00:02:34;80408.66;;;8.29;79.70
62680;BME280;68213;40.528;44.712;2023-05-20T00:03:35;80405.81;;;8.25;79.82
62680;BME280;68213;40.528;44.712;2023-05-20T00:04:35;80408.31;;;8.23;79.99
62680;BME280;68213;40.528;44.712;2023-05-20T00:05:36;80402.41;;;8.22;79.68
62680;BME280;68213;40.528;44.712;2023-05-20T00:06:37;80405.03;;;8.22;80.06
62680;BME280;68213;40.528;44.712;2023-05-20T00:07:37;80400.13;;;8.17;80.35
62680;BME280;68213;40.528;44.712;2023-05-20T00:08:38;80408.88;;;8.21;80.21
62680;BME280;68213;40.528;44.712;2023-05-20T00:09:38;80407.53;;;8.20;80.26
62680;BME280;68213;40.528;44.712;2023-05-20T00:10:39;80406.81;;;8.20;80.12
62680;BME280;68213;40.528;44.712;2023-05-20T00:11:40;80405.69;;;8.23;80.31
62680;BME280;68213;40.528;44.712;2023-05-20T00:12:41;80406.38;;;8.23;80.18
62680;BME280;68213;40.528;44.712;2023-05-20T00:13:42;80407.53;;;8.20;80.13
62680;BME280;68213;40.528;44.712;2023-05-20T00:14:42;80402.84;;;8.19;79.86
62680;BME280;68213;40.528;44.712;2023-05-20T00:15:43;80404.19;;;8.20;79.61
62680;BME280;68213;40.528;44.712;2023-05-20T00:16:43;80401.03;;;8.21;79.40
62680;BME280;68213;40.528;44.712;2023-05-20T00:17:44;80397.16;;;8.22;78.97
62680;BME280;68213;40.528;44.712;2023-05-20T00:18:45;80396.03;;;8.25;78.96
62680;BME280;68213;40.528;44.712;2023-05-20T00:19:45;80394.19;;;8.28;79.04
62680;BME280;68213;40.528;44.712;2023-05-20T00:20:46;80393.41;;;8.25;78.67
62680;BME280;68213;40.528;44.712;2023-05-20T00:21:47;80396.81;;;8.28;78.73
62680;BME280;68213;40.528;44.712;2023-05-20T00:22:47;80400.25;;;8.31;78.79
62680;BME280;68213;40.528;44.712;2023-05-20T00:23:48;80400.25;;;8.31;78.48
62680;BME280;68213;40.528;44.712;2023-05-20T00:24:48;80394.91;;;8.29;78.65
62680;BME280;68213;40.528;44.712;2023-05-20T00:25:49;80395.13;;;8.33;78.37
62680;BME280;68213;40.528;44.712;2023-05-20T00:26:50;80399.13;;;8.34;78.40
62680;BME280;68213;40.528;44.712;2023-05-20T00:27:51;80401.97;;;8.38;78.37
62680;BME280;68213;40.528;44.712;2023-05-20T00:28:51;80364.13;;;8.17;78.48
62680;BME280;68213;40.528;44.712;2023-05-20T00:29:52;80394.09;;;8.38;78.62
62680;BME280;68213;40.528;44.712;2023-05-20T00:30:53;80395.25;;;8.35;79.02
62680;BME280;68213;40.528;44.712;2023-05-20T00:31:54;80401.84;;;8.36;78.88
62680;BME280;68213;40.528;44.712;2023-05-20T00:32:55;80399.91;;;8.36;78.95
62680;BME280;68213;40.528;44.712;2023-05-20T00:33:55;80405.84;;;8.37;78.73
62680;BME280;68213;40.528;44.712;2023-05-20T00:34:57;80405.84;;;8.37;78.51
62680;BME280;68213;40.528;44.712;2023-05-20T00:35:58;80400.59;;;8.37;78.25
62680;BME280;68213;40.528;44.712;2023-05-20T00:36:58;80395.25;;;8.35;78.21
62680;BME280;68213;40.528;44.712;2023-05-20T00:37:59;80401.97;;;8.38;78.11
62680;BME280;68213;40.528;44.712;2023-05-20T00:39:00;80398.22;;;8.41;78.06
62680;BME280;68213;40.528;44.712;2023-05-20T00:40:01;80401.41;;;8.39;78.10
62680;BME280;68213;40.528;44.712;2023-05-20T00:41:02;80396.16;;;8.39;78.16
62680;BME280;68213;40.528;44.712;2023-05-20T00:42:03;80399.34;;;8.38;78.09
62680;BME280;68213;40.528;44.712;2023-05-20T00:43:04;80385.69;;;8.39;78.30
62680;BME280;68213;40.528;44.712;2023-05-20T00:44:04;80377.13;;;8.39;78.04
62680;BME280;68213;40.528;44.712;2023-05-20T00:45:05;80381.47;;;8.46;77.57
62680;BME280;68213;40.528;44.712;2023-05-20T00:46:06;80381.63;;;8.48;77.58
62680;BME280;68213;40.528;44.712;2023-05-20T00:47:07;80384.34;;;8.50;77.19
62680;BME280;68213;40.528;44.712;2023-05-20T00:48:08;80374.69;;;8.53;77.06
62680;BME280;68213;40.528;44.712;2023-05-20T00:49:10;80370.22;;;8.55;77.16
62680;BME280;68213;40.528;44.712;2023-05-20T00:50:11;80365.56;;;8.54;77.16
62680;BME280;68213;40.528;44.712;2023-05-20T00:51:12;80372.19;;;8.55;77.44
62680;BME280;68213;40.528;44.712;2023-05-20T00:52:13;80366.13;;;8.52;77.65
62680;BME280;68213;40.528;44.712;2023-05-20T00:53:16;80358.16;;;8.50;77.85
62680;BME280;68213;40.528;44.712;2023-05-20T00:54:18;80358.84;;;8.51;78.04
62680;BME280;68213;40.528;44.712;2023-05-20T00:55:18;80356.13;;;8.49;78.10
62680;BME280;68213;40.528;44.712;2023-05-20T00:56:22;80356.53;;;8.45;78.39
62680;BME280;68213;40.528;44.712;2023-05-20T00:57:22;80352.44;;;8.42;78.48
62680;BME280;68213;40.528;44.712;2023-05-20T00:58:23;80350.38;;;8.40;78.37
62680;BME280;68213;40.528;44.712;2023-05-20T00:59:25;80347.06;;;8.40;78.94
62680;BME280;68213;40.528;44.712;2023-05-20T01:00:26;80346.50;;;8.41;78.89
62680;BME280;68213;40.528;44.712;2023-05-20T01:01:26;80352.44;;;8.42;78.90
62680;BME280;68213;40.528;44.712;2023-05-20T01:02:27;80354.47;;;8.44;78.67
62680;BME280;68213;40.528;44.712;2023-05-20T01:03:29;80365.66;;;8.44;78.90
62680;BME280;68213;40.528;44.712;2023-05-20T01:04:30;80367.00;;;8.45;79.13
62680;BME280;68213;40.528;44.712;2023-05-20T01:05:31;80367.00;;;8.45;79.13
62680;BME280;68213;40.528;44.712;2023-05-20T01:06:32;80370.88;;;8.44;79.23
62680;BME280;68213;40.528;44.712;2023-05-20T01:07:33;80368.59;;;8.38;79.08
62680;BME280;68213;40.528;44.712;2023-05-20T01:08:34;80375.75;;;8.38;78.82
62680;BME280;68213;40.528;44.712;2023-05-20T01:09:35;80353.91;;;8.21;78.97
62680;BME280;68213;40.528;44.712;2023-05-20T01:10:39;80373.59;;;8.34;78.71
62680;BME280;68213;40.528;44.712;2023-05-20T01:11:46;80370.44;;;8.36;78.61
62680;BME280;68213;40.528;44.712;2023-05-20T01:12:52;80370.88;;;8.32;78.64
62680;BME280;68213;40.528;44.712;2023-05-20T01:13:57;80374.75;;;8.31;78.43
62680;BME280;68213;40.528;44.712;2023-05-20T01:16:06;80382.72;;;8.33;78.22
62680;BME280;68213;40.528;44.712;2023-05-20T01:17:09;80378.16;;;8.34;78.17
62680;BME280;68213;40.528;44.712;2023-05-20T01:18:13;80388.63;;;8.34;78.08
62680;BME280;68213;40.528;44.712;2023-05-20T01:19:30;80395.25;;;8.35;78.34
62680;BME280;68213;40.528;44.712;2023-05-20T01:20:37;80388.75;;;8.36;78.42
62680;BME280;68213;40.528;44.712;2023-05-20T01:21:39;80386.25;;;8.38;78.20
62680;BME280;68213;40.528;44.712;2023-05-20T01:22:48;80395.47;;;8.39;78.13
62680;BME280;68213;40.528;44.712;2023-05-20T01:23:48;80382.94;;;8.37;77.97
62680;BME280;68213;40.528;44.712;2023-05-20T01:24:49;80387.59;;;8.39;78.25
62680;BME280;68213;40.528;44.712;2023-05-20T01:25:52;80382.38;;;8.39;78.40
62680;BME280;68213;40.528;44.712;2023-05-20T01:26:53;80377.72;;;8.37;78.64
62680;BME280;68213;40.528;44.712;2023-05-20T01:27:57;80388.06;;;8.35;78.63
62680;BME280;68213;40.528;44.712;2023-05-20T01:28:58;80395.25;;;8.35;78.24
62680;BME280;68213;40.528;44.712;2023-05-20T01:30:03;80395.69;;;8.31;78.36
62680;BME280;68213;40.528;44.712;2023-05-20T01:31:10;80395.13;;;8.33;78.50
62680;BME280;68213;40.528;44.712;2023-05-20T01:32:18;80395.81;;;8.33;78.49
62680;BME280;68213;40.528;44.712;2023-05-20T01:33:21;80405.59;;;8.33;78.41
62680;BME280;68213;40.528;44.712;2023-05-20T01:34:24;80387.25;;;8.21;78.20
62680;BME280;68213;40.528;44.712;2023-05-20T01:35:27;80408.47;;;8.37;78.54
62680;BME280;68213;40.528;44.712;2023-05-20T01:36:30;80406.97;;;8.34;78.56
62680;BME280;68213;40.528;44.712;2023-05-20T01:37:32;80398.66;;;8.37;78.34
62680;BME280;68213;40.528;44.712;2023-05-20T01:38:36;80404.56;;;8.38;77.93
62680;BME280;68213;40.528;44.712;2023-05-20T01:40:42;80403.56;;;8.43;77.94
62680;BME280;68213;40.528;44.712;2023-05-20T01:41:44;80399.13;;;8.46;77.86
62680;BME280;68213;40.528;44.712;2023-05-20T01:42:46;80391.38;;;8.36;78.05
62680;BME280;68213;40.528;44.712;2023-05-20T01:43:54;80395.28;;;8.47;77.83
62680;BME280;68213;40.528;44.712;2023-05-20T01:44:55;80399.13;;;8.46;77.67
62680;BME280;68213;40.528;44.712;2023-05-20T01:45:58;80393.19;;;8.45;77.82
62680;BME280;68213;40.528;44.712;2023-05-20T01:47:02;80393.19;;;8.45;77.73
62680;BME280;68213;40.528;44.712;2023-05-20T01:48:02;80386.59;;;8.44;77.75
62680;BME280;68213;40.528;44.712;2023-05-20T01:49:03;80391.84;;;8.44;77.59
62680;BME280;68213;40.528;44.712;2023-05-20T01:50:04;80395.13;;;8.45;77.66
62680;BME280;68213;40.528;44.712;2023-05-20T01:51:05;80391.84;;;8.44;77.95
62680;BME280;68213;40.528;44.712;2023-05-20T01:52:06;80391.84;;;8.44;78.04
62680;BME280;68213;40.528;44.712;2023-05-20T01:53:07;80397.09;;;8.44;78.19
62680;BME280;68213;40.528;44.712;2023-05-20T01:54:08;80393.09;;;8.43;77.95
62680;BME280;68213;40.528;44.712;2023-05-20T01:55:09;80394.34;;;8.42;78.00
62680;BME280;68213;40.528;44.712;2023-05-20T01:56:10;80393.66;;;8.41;78.07
62680;BME280;68213;40.528;44.712;2023-05-20T01:57:10;80399.59;;;8.42;78.17
62680;BME280;68213;40.528;44.712;2023-05-20T01:58:11;80397.53;;;8.40;78.55
62680;BME280;68213;40.528;44.712;2023-05-20T01:59:12;80405.50;;;8.42;78.17
62680;BME280;68213;40.528;44.712;2023-05-20T02:00:12;80399.47;;;8.40;78.19
62680;BME280;68213;40.528;44.712;2023-05-20T02:01:13;80404.81;;;8.42;78.43
62680;BME280;68213;40.528;44.712;2023-05-20T02:02:14;80400.25;;;8.42;78.42
62680;BME280;68213;40.528;44.712;2023-05-20T02:03:15;80406.19;;;8.43;78.33
62680;BME280;68213;40.528;44.712;2023-05-20T02:04:16;80412.81;;;8.44;78.33
62680;BME280;68213;40.528;44.712;2023-05-20T02:05:20;80409.06;;;8.47;78.55
62680;BME280;68213;40.528;44.712;2023-05-20T02:06:20;80411.69;;;8.47;78.39
62680;BME280;68213;40.528;44.712;2023-05-20T02:07:21;80419.38;;;8.45;78.14
62680;BME280;68213;40.528;44.712;2023-05-20T02:08:22;80414.81;;;8.34;78.00
62680;BME280;68213;40.528;44.712;2023-05-20T02:09:22;80418.28;;;8.48;77.91
62680;BME280;68213;40.528;44.712;2023-05-20T02:10:26;80420.34;;;8.50;78.13
62680;BME280;68213;40.528;44.712;2023-05-20T02:11:27;80423.78;;;8.52;78.49
62680;BME280;68213;40.528;44.712;2023-05-20T02:12:27;80426.41;;;8.52;78.32
62680;BME280;68213;40.528;44.712;2023-05-20T02:13:28;80398.09;;;8.39;78.70
62680;BME280;68213;40.528;44.712;2023-05-20T02:14:29;80426.28;;;8.50;78.52
62680;BME280;68213;40.528;44.712;2023-05-20T02:15:30;80429.03;;;8.52;78.58
62680;BME280;68213;40.528;44.712;2023-05-20T02:16:31;80430.81;;;8.50;78.81
62680;BME280;68213;40.528;44.712;2023-05-20T02:17:33;80428.91;;;8.50;78.49
62680;BME280;68213;40.528;44.712;2023-05-20T02:18:54;80429.34;;;8.47;78.74
62680;BME280;68213;40.528;44.712;2023-05-20T02:19:55;80419.97;;;8.44;78.34
62680;BME280;68213;40.528;44.712;2023-05-20T02:20:55;80434.13;;;8.50;77.96
62680;BME280;68213;40.528;44.712;2023-05-20T02:21:58;80432.97;;;8.53;77.89
62680;BME280;68213;40.528;44.712;2023-05-20T02:22:59;80435.06;;;8.55;77.28
62680;BME280;68213;40.528;44.712;2023-05-20T02:23:59;80433.91;;;8.58;77.61
62680;BME280;68213;40.528;44.712;2023-05-20T02:25:01;80430.72;;;8.60;75.42
62680;BME280;68213;40.528;44.712;2023-05-20T02:26:01;80434.81;;;8.63;76.60
62680;BME280;68213;40.528;44.712;2023-05-20T02:27:02;80429.84;;;8.67;76.63
62680;BME280;68213;40.528;44.712;2023-05-20T02:28:04;80440.41;;;8.69;76.96
62680;BME280;68213;40.528;44.712;2023-05-20T02:29:05;80435.97;;;8.71;76.95
62680;BME280;68213;40.528;44.712;2023-05-20T02:30:06;80436.78;;;8.74;77.10
62680;BME280;68213;40.528;44.712;2023-05-20T02:31:07;80438.13;;;8.75;76.97
62680;BME280;68213;40.528;44.712;2023-05-20T02:32:08;80442.03;;;8.74;77.49
62680;BME280;68213;40.528;44.712;2023-05-20T02:33:09;80445.19;;;8.72;77.45
62680;BME280;68213;40.528;44.712;2023-05-20T02:34:09;80441.78;;;8.70;77.56
62680;BME280;68213;40.528;44.712;2023-05-20T02:35:10;80440.19;;;8.65;78.49
62680;BME280;68213;40.528;44.712;2023-05-20T02:36:11;80449.53;;;8.68;79.40
62680;BME280;68213;40.528;44.712;2023-05-20T02:37:11;80446.34;;;8.69;78.90
62680;BME280;68213;40.528;44.712;2023-05-20T02:38:12;80450.78;;;8.67;79.92
62680;BME280;68213;40.528;44.712;2023-05-20T02:39:13;80451.59;;;8.69;79.43
62680;BME280;68213;40.528;44.712;2023-05-20T02:40:13;80454.22;;;8.69;79.31
62680;BME280;68213;40.528;44.712;2023-05-20T02:41:14;80455.59;;;8.70;79.39
62680;BME280;68213;40.528;44.712;2023-05-20T02:42:14;80451.00;;;8.71;79.47
62680;BME280;68213;40.528;44.712;2023-05-20T02:43:15;80450.34;;;8.70;79.73
62680;BME280;68213;40.528;44.712;2023-05-20T02:44:16;80448.28;;;8.69;79.83
62680;BME280;68213;40.528;44.712;2023-05-20T02:45:20;80443.59;;;8.67;79.41
62680;BME280;68213;40.528;44.712;2023-05-20T02:46:20;80432.53;;;8.69;79.16
62680;BME280;68213;40.528;44.712;2023-05-20T02:47:21;80437.56;;;8.65;79.61
62680;BME280;68213;40.528;44.712;2023-05-20T02:48:21;80439.41;;;8.62;79.85
62680;BME280;68213;40.528;44.712;2023-05-20T02:49:22;80411.31;;;8.41;79.19
62680;BME280;68213;40.528;44.712;2023-05-20T02:50:23;80428.34;;;8.64;80.59
62680;BME280;68213;40.528;44.712;2023-05-20T02:51:24;80430.03;;;8.59;80.76
62680;BME280;68213;40.528;44.712;2023-05-20T02:52:25;80429.25;;;8.56;81.25
62680;BME280;68213;40.528;44.712;2023-05-20T02:53:25;80422.28;;;8.61;81.90
62680;BME280;68213;40.528;44.712;2023-05-20T02:54:26;80423.09;;;8.64;81.87
62680;BME280;68213;40.528;44.712;2023-05-20T02:55:27;80421.72;;;8.63;81.90
62680;BME280;68213;40.528;44.712;2023-05-20T02:56:28;80418.66;;;8.66;81.35
62680;BME280;68213;40.528;44.712;2023-05-20T02:57:28;80414.22;;;8.69;81.32
62680;BME280;68213;40.528;44.712;2023-05-20T02:58:29;80408.50;;;8.72;81.56
62680;BME280;68213;40.528;44.712;2023-05-20T02:59:30;80413.19;;;8.74;81.90
62680;BME280;68213;40.528;44.712;2023-05-20T03:00:34;80396.66;;;8.60;81.84
62680;BME280;68213;40.528;44.712;2023-05-20T03:01:39;80401.00;;;8.67;81.61
62680;BME280;68213;40.528;44.712;2023-05-20T03:02:40;80399.19;;;8.69;81.57
62680;BME280;68213;40.528;44.712;2023-05-20T03:03:41;80404.50;;;8.71;81.16
62680;BME280;68213;40.528;44.712;2023-05-20T03:04:42;80407.50;;;8.78;80.81
62680;BME280;68213;40.528;44.712;2023-05-20T03:05:43;80398.94;;;8.77;81.04
62680;BME280;68213;40.528;44.712;2023-05-20T03:06:45;80398.28;;;8.77;80.59
62680;BME280;68213;40.528;44.712;2023-05-20T03:07:46;80392.31;;;8.76;80.38
62680;BME280;68213;40.528;44.712;2023-05-20T03:08:47;80391.88;;;8.80;80.61
62680;BME280;68213;40.528;44.712;2023-05-20T03:09:48;80396.44;;;8.79;81.30
62680;BME280;68213;40.528;44.712;2023-05-20T03:10:49;80396.44;;;8.79;81.37
62680;BME280;68213;40.528;44.712;2023-05-20T03:11:51;80396.09;;;8.73;81.66
62680;BME280;68213;40.528;44.712;2023-05-20T03:12:52;80388.44;;;8.65;81.14
62680;BME280;68213;40.528;44.712;2023-05-20T03:13:53;80393.25;;;8.81;80.85
62680;BME280;68213;40.528;44.712;2023-05-20T03:14:53;80389.81;;;8.78;80.68
62680;BME280;68213;40.528;44.712;2023-05-20T03:15:57;80393.69;;;8.77;80.90
62680;BME280;68213;40.528;44.712;2023-05-20T03:17:00;80393.38;;;8.83;81.14
62680;BME280;68213;40.528;44.712;2023-05-20T03:18:03;80394.03;;;8.83;80.82
62680;BME280;68213;40.528;44.712;2023-05-20T03:19:04;80394.63;;;8.82;80.57
62680;BME280;68213;40.528;44.712;2023-05-20T03:20:05;80393.94;;;8.81;81.40
62680;BME280;68213;40.528;44.712;2023-05-20T03:21:06;80395.97;;;8.83;81.64
62680;BME280;68213;40.528;44.712;2023-05-20T03:22:07;80396.44;;;8.91;81.46
62680;BME280;68213;40.528;44.712;2023-05-20T03:23:08;80411.13;;;8.96;81.54
62680;BME280;68213;40.528;44.712;2023-05-20T03:24:09;80408.06;;;9.00;80.93
62680;BME280;68213;40.528;44.712;2023-05-20T03:25:10;80414.88;;;9.05;79.85
62680;BME280;68213;40.528;44.712;2023-05-20T03:26:11;80410.56;;;9.10;78.89
62680;BME280;68213;40.528;44.712;2023-05-20T03:27:11;80410.09;;;9.13;78.14
62680;BME280;68213;40.528;44.712;2023-05-20T03:28:12;80410.78;;;9.14;77.92
62680;BME280;68213;40.528;44.712;2023-05-20T03:29:12;80407.59;;;9.15;78.59
62680;BME280;68213;40.528;44.712;2023-05-20T03:30:13;80413.50;;;9.16;78.84
62680;BME280;68213;40.528;44.712;2023-05-20T03:31:14;80411.72;;;9.18;78.93
62680;BME280;68213;40.528;44.712;2023-05-20T03:32:15;80396.44;;;9.03;78.25
62680;BME280;68213;40.528;44.712;2023-05-20T03:33:15;80402.22;;;9.01;77.69
62680;BME280;68213;40.528;44.712;2023-05-20T03:34:16;80418.88;;;9.18;77.95
62680;BME280;68213;40.528;44.712;2023-05-20T03:35:19;80408.63;;;9.10;78.36
62680;BME280;68213;40.528;44.712;2023-05-20T03:36:20;80421.50;;;9.18;78.42
62680;BME280;68213;40.528;44.712;2023-05-20T03:37:20;80417.16;;;9.23;77.90
62680;BME280;68213;40.528;44.712;2023-05-20T03:38:21;80420.13;;;9.29;76.90
62680;BME280;68213;40.528;44.712;2023-05-20T03:39:22;80418.41;;;9.33;77.12
62680;BME280;68213;40.528;44.712;2023-05-20T03:40:22;80410.06;;;9.37;76.85
62680;BME280;68213;40.528;44.712;2023-05-20T03:41:23;80414.19;;;9.40;77.62
62680;BME280;68213;40.528;44.712;2023-05-20T03:42:24;80409.16;;;9.44;78.09
62680;BME280;68213;40.528;44.712;2023-05-20T03:43:24;80411.88;;;9.46;78.30
62680;BME280;68213;40.528;44.712;2023-05-20T03:44:26;80408.47;;;9.44;78.34
62680;BME280;68213;40.528;44.712;2023-05-20T03:45:29;80408.69;;;9.48;77.26
62680;BME280;68213;40.528;44.712;2023-05-20T03:46:30;80412.09;;;9.50;77.61
62680;BME280;68213;40.528;44.712;2023-05-20T03:47:33;80406.53;;;9.44;78.02
62680;BME280;68213;40.528;44.712;2023-05-20T03:48:33;80407.78;;;9.43;77.61
62680;BME280;68213;40.528;44.712;2023-05-20T03:49:34;80404.59;;;9.45;76.83
62680;BME280;68213;40.528;44.712;2023-05-20T03:50:35;80409.59;;;9.52;76.30
62680;BME280;68213;40.528;44.712;2023-05-20T03:51:35;80406.72;;;9.60;76.93
62680;BME280;68213;40.528;44.712;2023-05-20T03:52:36;80404.19;;;9.62;78.36
62680;BME280;68213;40.528;44.712;2023-05-20T03:53:37;80408.88;;;9.64;77.82
62680;BME280;68213;40.528;44.712;2023-05-20T03:54:38;80414.81;;;9.64;77.00
62680;BME280;68213;40.528;44.712;2023-05-20T03:55:38;80408.97;;;9.66;76.44
62680;BME280;68213;40.528;44.712;2023-05-20T03:56:40;80407.25;;;9.71;76.36
62680;BME280;68213;40.528;44.712;2023-05-20T03:57:40;80407.38;;;9.73;76.60
62680;BME280;68213;40.528;44.712;2023-05-20T03:58:41;80408.28;;;9.77;76.28
62680;BME280;68213;40.528;44.712;2023-05-20T03:59:42;80408.38;;;9.79;75.91
62680;BME280;68213;40.528;44.712;2023-05-20T04:00:42;80414.53;;;9.84;78.28
62680;BME280;68213;40.528;44.712;2023-05-20T04:01:43;80406.09;;;9.86;78.10
62680;BME280;68213;40.528;44.712;2023-05-20T04:02:44;80398.56;;;9.80;76.77
62680;BME280;68213;40.528;44.712;2023-05-20T04:03:44;80417.22;;;9.98;75.79
62680;BME280;68213;40.528;44.712;2023-05-20T04:04:48;80413.66;;;10.05;75.50
62680;BME280;68213;40.528;44.712;2023-05-20T04:05:52;80418.56;;;10.11;74.19
62680;BME280;68213;40.528;44.712;2023-05-20T04:06:52;80416.91;;;10.18;74.26
62680;BME280;68213;40.528;44.712;2023-05-20T04:07:53;80419.75;;;10.22;73.74
62680;BME280;68213;40.528;44.712;2023-05-20T04:08:54;80416.13;;;10.15;74.00
62680;BME280;68213;40.528;44.712;2023-05-20T04:09:55;80415.53;;;10.16;73.93
62680;BME280;68213;40.528;44.712;2023-05-20T04:10:56;80411.00;;;10.17;73.83
62680;BME280;68213;40.528;44.712;2023-05-20T04:11:56;80416.91;;;10.18;74.00
62680;BME280;68213;40.528;44.712;2023-05-20T04:12:57;80411.56;;;10.15;74.00
62680;BME280;68213;40.528;44.712;2023-05-20T04:13:58;80406.41;;;10.18;74.02
62680;BME280;68213;40.528;44.712;2023-05-20T04:14:59;80406.41;;;10.18;71.98
62680;BME280;68213;40.528;44.712;2023-05-20T04:16:00;80409.69;;;10.30;71.83
62680;BME280;68213;40.528;44.712;2023-05-20T04:17:04;80413.88;;;10.35;72.22
62680;BME280;68213;40.528;44.712;2023-05-20T04:18:05;80403.50;;;10.37;72.25
62680;BME280;68213;40.528;44.712;2023-05-20T04:19:06;80408.16;;;10.39;71.97
62680;BME280;68213;40.528;44.712;2023-05-20T04:20:07;80400.75;;;10.35;71.63
62680;BME280;68213;40.528;44.712;2023-05-20T04:21:07;80415.22;;;10.48;71.50
62680;BME280;68213;40.528;44.712;2023-05-20T04:22:10;80409.78;;;10.58;72.40
62680;BME280;68213;40.528;44.712;2023-05-20T04:23:11;80401.91;;;10.58;73.82
62680;BME280;68213;40.528;44.712;2023-05-20T04:24:12;80406.41;;;10.69;73.23
62680;BME280;68213;40.528;44.712;2023-05-20T04:25:12;80407.41;;;10.76;72.40
62680;BME280;68213;40.528;44.712;2023-05-20T04:26:13;80407.22;;;10.72;73.83
62680;BME280;68213;40.528;44.712;2023-05-20T04:27:14;80410.25;;;10.54;75.42
62680;BME280;68213;40.528;44.712;2023-05-20T04:28:15;80406.44;;;10.43;74.82
62680;BME280;68213;40.528;44.712;2023-05-20T04:29:16;80416.59;;;10.49;73.59
62680;BME280;68213;40.528;44.712;2023-05-20T04:30:18;80393.78;;;10.54;73.06
62680;BME280;68213;40.528;44.712;2023-05-20T04:31:20;80397.59;;;10.51;73.10
62680;BME280;68213;40.528;44.712;2023-05-20T04:32:26;80407.22;;;10.72;72.76
62680;BME280;68213;40.528;44.712;2023-05-20T04:33:26;80410.09;;;10.64;73.02
62680;BME280;68213;40.528;44.712;2023-05-20T04:34:32;80411.59;;;10.41;74.97
62680;BME280;68213;40.528;44.712;2023-05-20T04:35:34;80412.66;;;10.50;75.39
62680;BME280;68213;40.528;44.712;2023-05-20T04:36:36;80414.94;;;10.56;74.30
62680;BME280;68213;40.528;44.712;2023-05-20T04:37:37;80411.47;;;10.65;74.13
62680;BME280;68213;40.528;44.712;2023-05-20T04:38:38;80404.00;;;10.73;74.81
62680;BME280;68213;40.528;44.712;2023-05-20T04:39:39;80332.59;;;10.25;74.26
62680;BME280;68213;40.528;44.712;2023-05-20T04:40:40;80415.22;;;10.88;73.60
62680;BME280;68213;40.528;44.712;2023-05-20T04:41:41;80406.06;;;10.89;73.12
62680;BME280;68213;40.528;44.712;2023-05-20T04:42:41;80416.84;;;10.81;74.94
62680;BME280;68213;40.528;44.712;2023-05-20T04:43:44;80409.97;;;10.88;76.10
62680;BME280;68213;40.528;44.712;2023-05-20T04:44:45;80409.97;;;10.88;75.07
62680;BME280;68213;40.528;44.712;2023-05-20T04:45:45;80404.81;;;10.90;76.03
62680;BME280;68213;40.528;44.712;2023-05-20T04:46:47;80412.22;;;10.93;76.21
62680;BME280;68213;40.528;44.712;2023-05-20T04:47:48;80417.47;;;10.93;76.39
62680;BME280;68213;40.528;44.712;2023-05-20T04:48:48;80419.50;;;10.95;76.82
62680;BME280;68213;40.528;44.712;2023-05-20T04:49:50;80410.56;;;11.00;76.45
62680;BME280;68213;40.528;44.712;2023-05-20T04:50:50;80412.50;;;11.00;76.10
62680;BME280;68213;40.528;44.712;2023-05-20T04:51:51;80410.06;;;11.04;77.13
62680;BME280;68213;40.528;44.712;2023-05-20T04:52:54;80385.00;;;10.75;77.88
62680;BME280;68213;40.528;44.712;2023-05-20T04:53:54;80409.44;;;10.77;78.49
62680;BME280;68213;40.528;44.712;2023-05-20T04:54:55;80413.69;;;10.57;80.38
62680;BME280;68213;40.528;44.712;2023-05-20T04:55:57;80418.09;;;10.66;79.56
62680;BME280;68213;40.528;44.712;2023-05-20T04:56:58;80405.38;;;10.48;79.86
62680;BME280;68213;40.528;44.712;2023-05-20T04:57:59;80421.88;;;10.63;80.51
62680;BME280;68213;40.528;44.712;2023-05-20T04:58:59;80417.38;;;10.66;80.03
62680;BME280;68213;40.528;44.712;2023-05-20T05:00:00;80417.09;;;10.59;79.80
62680;BME280;68213;40.528;44.712;2023-05-20T05:01:04;80421.16;;;10.48;79.91
62680;BME280;68213;40.528;44.712;2023-05-20T05:02:05;80408.97;;;10.41;79.28
62680;BME280;68213;40.528;44.712;2023-05-20T05:03:05;80423.94;;;10.39;78.80
62680;BME280;68213;40.528;44.712;2023-05-20T05:04:09;80416.19;;;10.29;77.98
62680;BME280;68213;40.528;44.712;2023-05-20T05:05:10;80419.41;;;10.27;78.03
62680;BME280;68213;40.528;44.712;2023-05-20T05:06:10;80416.19;;;10.29;78.06
62680;BME280;68213;40.528;44.712;2023-05-20T05:07:11;80420.97;;;10.32;77.83
62680;BME280;68213;40.528;44.712;2023-05-20T05:08:11;80425.44;;;10.30;78.63
62680;BME280;68213;40.528;44.712;2023-05-20T05:09:12;80405.84;;;10.19;78.74
62680;BME280;68213;40.528;44.712;2023-05-20T05:10:13;80427.00;;;10.35;78.66
62680;BME280;68213;40.528;44.712;2023-05-20T05:11:15;80423.50;;;10.30;79.59
62680;BME280;68213;40.528;44.712;2023-05-20T05:12:15;80427.81;;;10.38;78.99
62680;BME280;68213;40.528;44.712;2023-05-20T05:13:16;80415.41;;;10.26;80.19
62680;BME280;68213;40.528;44.712;2023-05-20T05:14:17;80413.47;;;10.27;80.15
62680;BME280;68213;40.528;44.712;2023-05-20T05:15:17;80425.63;;;10.46;79.50
62680;BME280;68213;40.528;44.712;2023-05-20T05:16:18;80421.16;;;10.48;78.24
62680;BME280;68213;40.528;44.712;2023-05-20T05:17:18;80425.44;;;10.56;77.65
62680;BME280;68213;40.528;44.712;2023-05-20T05:18:22;80426.81;;;10.57;76.80
62680;BME280;68213;40.528;44.712;2023-05-20T05:19:23;80426.81;;;10.57;76.54
62680;BME280;68213;40.528;44.712;2023-05-20T05:20:24;80425.94;;;10.52;77.14
62680;BME280;68213;40.528;44.712;2023-05-20T05:21:24;80427.94;;;10.40;77.54
62680;BME280;68213;40.528;44.712;2023-05-20T05:22:25;80434.78;;;10.33;77.79
62680;BME280;68213;40.528;44.712;2023-05-20T05:23:26;80407.34;;;10.10;78.02
62680;BME280;68213;40.528;44.712;2023-05-20T05:24:27;80431.31;;;10.16;78.56
62680;BME280;68213;40.528;44.712;2023-05-20T05:25:27;80427.84;;;10.26;80.94
62680;BME280;68213;40.528;44.712;2023-05-20T05:26:28;80428.06;;;10.30;80.60